sensor_id;sensor_type;location;lat;lon;timestamp;P1;durP1;ratioP1;P2;durP2;ratioP2
71360;SDS011;59166;48.908;1.870;2023-08-12T00:03:25;9.27;;;4.35;;
71360;SDS011;59166;48.908;1.870;2023-08-12T00:08:25;12.40;;;3.97;;
71360;SDS011;59166;48.908;1.870;2023-08-12T00:13:26;8.48;;;3.80;;
71360;SDS011;59166;48.908;1.870;2023-08-12T00:18:28;9.00;;;3.80;;
71360;SDS011;59166;48.908;1.870;2023-08-12T00:23:29;11.10;;;3.88;;
71360;SDS011;59166;48.908;1.870;2023-08-12T00:28:29;10.00;;;3.83;;
71360;SDS011;59166;48.908;1.870;2023-08-12T00:33:31;14.07;;;4.37;;
71360;SDS011;59166;48.908;1.870;2023-08-12T00:38:32;12.82;;;4.30;;
71360;SDS011;59166;48.908;1.870;2023-08-12T00:43:32;10.90;;;4.07;;
71360;SDS011;59166;48.908;1.870;2023-08-12T00:48:34;11.57;;;4.28;;
71360;SDS011;59166;48.908;1.870;2023-08-12T00:53:35;11.13;;;4.53;;
71360;SDS011;59166;48.908;1.870;2023-08-12T00:58:36;11.27;;;4.63;;
71360;SDS011;59166;48.908;1.870;2023-08-12T01:03:39;11.48;;;4.45;;
71360;SDS011;59166;48.908;1.870;2023-08-12T01:08:40;11.13;;;4.03;;
71360;SDS011;59166;48.908;1.870;2023-08-12T01:13:42;7.85;;;3.85;;
71360;SDS011;59166;48.908;1.870;2023-08-12T01:18:51;9.53;;;3.60;;
71360;SDS011;59166;48.908;1.870;2023-08-12T01:23:54;9.13;;;3.97;;
71360;SDS011;59166;48.908;1.870;2023-08-12T01:28:54;8.45;;;3.70;;
71360;SDS011;59166;48.908;1.870;2023-08-12T01:33:58;9.53;;;3.13;;
71360;SDS011;59166;48.908;1.870;2023-08-12T01:39:04;8.20;;;3.10;;
71360;SDS011;59166;48.908;1.870;2023-08-12T01:44:06;8.18;;;2.78;;
71360;SDS011;59166;48.908;1.870;2023-08-12T01:49:07;6.53;;;2.60;;
71360;SDS011;59166;48.908;1.870;2023-08-12T01:54:09;6.60;;;2.23;;
71360;SDS011;59166;48.908;1.870;2023-08-12T01:59:09;6.75;;;2.20;;
71360;SDS011;59166;48.908;1.870;2023-08-12T02:04:10;4.73;;;1.70;;
71360;SDS011;59166;48.908;1.870;2023-08-12T02:09:12;6.03;;;1.70;;
71360;SDS011;59166;48.908;1.870;2023-08-12T02:14:12;7.00;;;1.60;;
71360;SDS011;59166;48.908;1.870;2023-08-12T02:19:13;3.43;;;1.33;;
71360;SDS011;59166;48.908;1.870;2023-08-12T02:24:15;3.92;;;1.65;;
71360;SDS011;59166;48.908;1.870;2023-08-12T02:29:16;4.97;;;1.50;;
71360;SDS011;59166;48.908;1.870;2023-08-12T02:34:16;5.47;;;1.55;;
71360;SDS011;59166;48.908;1.870;2023-08-12T02:39:19;4.43;;;1.27;;
71360;SDS011;59166;48.908;1.870;2023-08-12T02:44:19;4.05;;;1.33;;
71360;SDS011;59166;48.908;1.870;2023-08-12T02:49:20;4.60;;;1.40;;
71360;SDS011;59166;48.908;1.870;2023-08-12T02:54:22;5.90;;;1.60;;
71360;SDS011;59166;48.908;1.870;2023-08-12T02:59:23;3.22;;;1.30;;
71360;SDS011;59166;48.908;1.870;2023-08-12T03:04:23;4.43;;;1.40;;
71360;SDS011;59166;48.908;1.870;2023-08-12T03:09:25;4.05;;;1.30;;
71360;SDS011;59166;48.908;1.870;2023-08-12T03:14:26;4.30;;;1.30;;
71360;SDS011;59166;48.908;1.870;2023-08-12T03:19:28;3.57;;;1.30;;
71360;SDS011;59166;48.908;1.870;2023-08-12T03:24:30;4.90;;;1.40;;
71360;SDS011;59166;48.908;1.870;2023-08-12T03:29:31;4.00;;;1.30;;
71360;SDS011;59166;48.908;1.870;2023-08-12T03:34:31;5.20;;;1.40;;
71360;SDS011;59166;48.908;1.870;2023-08-12T03:39:33;5.90;;;1.40;;
71360;SDS011;59166;48.908;1.870;2023-08-12T03:44:34;3.63;;;1.40;;
71360;SDS011;59166;48.908;1.870;2023-08-12T03:49:34;3.53;;;1.30;;
71360;SDS011;59166;48.908;1.870;2023-08-12T03:54:36;4.53;;;1.40;;
71360;SDS011;59166;48.908;1.870;2023-08-12T03:59:37;7.20;;;1.25;;
71360;SDS011;59166;48.908;1.870;2023-08-12T04:04:37;6.07;;;1.30;;
71360;SDS011;59166;48.908;1.870;2023-08-12T04:09:39;3.73;;;1.33;;
71360;SDS011;59166;48.908;1.870;2023-08-12T04:14:40;4.43;;;1.38;;
71360;SDS011;59166;48.908;1.870;2023-08-12T04:19:41;3.47;;;1.37;;
71360;SDS011;59166;48.908;1.870;2023-08-12T04:24:43;4.28;;;1.48;;
71360;SDS011;59166;48.908;1.870;2023-08-12T04:29:45;4.87;;;1.50;;
71360;SDS011;59166;48.908;1.870;2023-08-12T04:34:46;5.20;;;1.70;;
71360;SDS011;59166;48.908;1.870;2023-08-12T04:39:48;6.17;;;1.60;;
71360;SDS011;59166;48.908;1.870;2023-08-12T04:44:49;7.05;;;1.65;;
71360;SDS011;59166;48.908;1.870;2023-08-12T04:49:49;5.13;;;1.50;;
71360;SDS011;59166;48.908;1.870;2023-08-12T04:54:53;6.30;;;1.40;;
71360;SDS011;59166;48.908;1.870;2023-08-12T04:59:54;5.65;;;1.77;;
71360;SDS011;59166;48.908;1.870;2023-08-12T05:04:55;4.20;;;1.60;;
71360;SDS011;59166;48.908;1.870;2023-08-12T05:09:57;5.43;;;1.60;;
71360;SDS011;59166;48.908;1.870;2023-08-12T05:14:58;5.68;;;1.55;;
71360;SDS011;59166;48.908;1.870;2023-08-12T05:19:58;5.97;;;1.70;;
71360;SDS011;59166;48.908;1.870;2023-08-12T05:25:00;4.32;;;1.50;;
71360;SDS011;59166;48.908;1.870;2023-08-12T05:30:01;4.37;;;1.60;;
71360;SDS011;59166;48.908;1.870;2023-08-12T05:35:02;6.80;;;1.70;;
71360;SDS011;59166;48.908;1.870;2023-08-12T05:40:05;6.03;;;1.92;;
71360;SDS011;59166;48.908;1.870;2023-08-12T05:45:08;4.17;;;1.67;;
71360;SDS011;59166;48.908;1.870;2023-08-12T05:50:09;6.43;;;1.70;;
71360;SDS011;59166;48.908;1.870;2023-08-12T05:55:11;6.33;;;1.70;;
71360;SDS011;59166;48.908;1.870;2023-08-12T06:00:12;5.80;;;1.75;;
71360;SDS011;59166;48.908;1.870;2023-08-12T06:05:13;6.30;;;2.42;;
71360;SDS011;59166;48.908;1.870;2023-08-12T06:10:15;6.77;;;3.30;;
71360;SDS011;59166;48.908;1.870;2023-08-12T06:15:15;8.18;;;3.47;;
71360;SDS011;59166;48.908;1.870;2023-08-12T06:20:16;8.20;;;3.50;;
71360;SDS011;59166;48.908;1.870;2023-08-12T06:25:18;8.63;;;3.23;;
71360;SDS011;59166;48.908;1.870;2023-08-12T06:30:19;6.35;;;2.72;;
71360;SDS011;59166;48.908;1.870;2023-08-12T06:35:20;8.20;;;2.60;;
71360;SDS011;59166;48.908;1.870;2023-08-12T06:40:22;7.13;;;3.10;;
71360;SDS011;59166;48.908;1.870;2023-08-12T06:45:22;7.90;;;3.10;;
71360;SDS011;59166;48.908;1.870;2023-08-12T06:50:23;6.90;;;2.50;;
71360;SDS011;59166;48.908;1.870;2023-08-12T06:55:25;7.47;;;2.90;;
71360;SDS011;59166;48.908;1.870;2023-08-12T07:00:26;6.40;;;2.90;;
71360;SDS011;59166;48.908;1.870;2023-08-12T07:05:27;8.77;;;2.83;;
71360;SDS011;59166;48.908;1.870;2023-08-12T07:10:29;7.47;;;2.67;;
71360;SDS011;59166;48.908;1.870;2023-08-12T07:15:29;7.80;;;2.40;;
71360;SDS011;59166;48.908;1.870;2023-08-12T07:20:30;7.85;;;2.60;;
71360;SDS011;59166;48.908;1.870;2023-08-12T07:25:32;7.43;;;2.90;;
71360;SDS011;59166;48.908;1.870;2023-08-12T07:30:33;7.88;;;2.30;;
71360;SDS011;59166;48.908;1.870;2023-08-12T07:35:34;6.87;;;2.43;;
71360;SDS011;59166;48.908;1.870;2023-08-12T07:40:36;6.47;;;2.38;;
71360;SDS011;59166;48.908;1.870;2023-08-12T07:45:37;7.63;;;2.97;;
71360;SDS011;59166;48.908;1.870;2023-08-12T07:50:37;7.83;;;2.93;;
71360;SDS011;59166;48.908;1.870;2023-08-12T07:55:40;8.47;;;3.10;;
71360;SDS011;59166;48.908;1.870;2023-08-12T08:00:40;8.80;;;3.20;;
71360;SDS011;59166;48.908;1.870;2023-08-12T08:05:41;8.27;;;2.67;;
71360;SDS011;59166;48.908;1.870;2023-08-12T08:10:43;6.70;;;2.23;;
71360;SDS011;59166;48.908;1.870;2023-08-12T08:15:44;7.93;;;1.80;;
71360;SDS011;59166;48.908;1.870;2023-08-12T08:20:45;10.07;;;2.10;;
71360;SDS011;59166;48.908;1.870;2023-08-12T08:25:47;10.07;;;2.10;;
71360;SDS011;59166;48.908;1.870;2023-08-12T08:30:48;8.73;;;2.08;;
71360;SDS011;59166;48.908;1.870;2023-08-12T08:35:48;7.77;;;1.73;;
71360;SDS011;59166;48.908;1.870;2023-08-12T08:40:50;6.53;;;1.90;;
71360;SDS011;59166;48.908;1.870;2023-08-12T08:45:52;9.27;;;2.10;;
71360;SDS011;59166;48.908;1.870;2023-08-12T08:50:53;8.70;;;2.30;;
71360;SDS011;59166;48.908;1.870;2023-08-12T08:55:56;9.82;;;2.60;;
71360;SDS011;59166;48.908;1.870;2023-08-12T09:00:58;8.30;;;2.30;;
71360;SDS011;59166;48.908;1.870;2023-08-12T09:05:59;8.20;;;2.40;;
71360;SDS011;59166;48.908;1.870;2023-08-12T09:11:01;8.32;;;2.30;;
71360;SDS011;59166;48.908;1.870;2023-08-12T09:16:02;6.57;;;1.60;;
71360;SDS011;59166;48.908;1.870;2023-08-12T09:21:03;6.93;;;1.70;;
71360;SDS011;59166;48.908;1.870;2023-08-12T09:26:12;6.47;;;1.60;;
71360;SDS011;59166;48.908;1.870;2023-08-12T09:31:21;5.78;;;1.70;;
71360;SDS011;59166;48.908;1.870;2023-08-12T09:36:23;6.88;;;1.80;;
71360;SDS011;59166;48.908;1.870;2023-08-12T09:41:25;4.40;;;1.50;;
71360;SDS011;59166;48.908;1.870;2023-08-12T09:46:27;8.27;;;1.65;;
71360;SDS011;59166;48.908;1.870;2023-08-12T09:51:27;5.53;;;1.63;;
71360;SDS011;59166;48.908;1.870;2023-08-12T09:56:36;4.60;;;1.45;;
71360;SDS011;59166;48.908;1.870;2023-08-12T10:01:39;4.83;;;1.30;;
71360;SDS011;59166;48.908;1.870;2023-08-12T10:06:43;4.17;;;1.30;;
71360;SDS011;59166;48.908;1.870;2023-08-12T10:11:46;4.10;;;1.40;;
71360;SDS011;59166;48.908;1.870;2023-08-12T10:16:47;5.43;;;1.35;;
71360;SDS011;59166;48.908;1.870;2023-08-12T10:21:48;4.67;;;1.20;;
71360;SDS011;59166;48.908;1.870;2023-08-12T10:26:54;5.50;;;1.25;;
71360;SDS011;59166;48.908;1.870;2023-08-12T10:31:55;3.77;;;1.00;;
71360;SDS011;59166;48.908;1.870;2023-08-12T10:36:57;5.53;;;1.20;;
71360;SDS011;59166;48.908;1.870;2023-08-12T10:42:02;3.65;;;1.27;;
71360;SDS011;59166;48.908;1.870;2023-08-12T10:47:05;4.90;;;1.20;;
71360;SDS011;59166;48.908;1.870;2023-08-12T10:52:12;6.37;;;1.30;;
71360;SDS011;59166;48.908;1.870;2023-08-12T10:57:35;4.35;;;1.13;;
71360;SDS011;59166;48.908;1.870;2023-08-12T11:02:37;3.55;;;1.20;;
71360;SDS011;59166;48.908;1.870;2023-08-12T11:07:38;4.37;;;1.30;;
71360;SDS011;59166;48.908;1.870;2023-08-12T11:12:41;5.10;;;1.35;;
71360;SDS011;59166;48.908;1.870;2023-08-12T11:17:46;4.60;;;1.20;;
71360;SDS011;59166;48.908;1.870;2023-08-12T11:22:47;4.87;;;1.30;;
71360;SDS011;59166;48.908;1.870;2023-08-12T11:27:49;4.00;;;1.35;;
71360;SDS011;59166;48.908;1.870;2023-08-12T11:32:50;5.50;;;1.17;;
71360;SDS011;59166;48.908;1.870;2023-08-12T11:37:52;5.95;;;1.40;;
71360;SDS011;59166;48.908;1.870;2023-08-12T11:42:55;4.53;;;1.38;;
71360;SDS011;59166;48.908;1.870;2023-08-12T11:47:56;7.32;;;1.65;;
71360;SDS011;59166;48.908;1.870;2023-08-12T11:52:56;5.77;;;1.50;;
71360;SDS011;59166;48.908;1.870;2023-08-12T11:57:59;6.80;;;1.50;;
71360;SDS011;59166;48.908;1.870;2023-08-12T12:02:59;5.28;;;1.48;;
71360;SDS011;59166;48.908;1.870;2023-08-12T12:08:00;5.83;;;1.70;;
71360;SDS011;59166;48.908;1.870;2023-08-12T12:13:02;5.07;;;1.60;;
71360;SDS011;59166;48.908;1.870;2023-08-12T12:18:08;8.55;;;1.73;;
71360;SDS011;59166;48.908;1.870;2023-08-12T12:23:09;7.33;;;1.60;;
71360;SDS011;59166;48.908;1.870;2023-08-12T12:28:12;5.35;;;1.50;;
71360;SDS011;59166;48.908;1.870;2023-08-12T12:33:12;6.40;;;1.60;;
71360;SDS011;59166;48.908;1.870;2023-08-12T12:38:13;6.35;;;1.73;;
71360;SDS011;59166;48.908;1.870;2023-08-12T12:43:15;7.60;;;1.90;;
71360;SDS011;59166;48.908;1.870;2023-08-12T12:48:16;6.82;;;1.70;;
71360;SDS011;59166;48.908;1.870;2023-08-12T12:53:16;7.40;;;1.57;;
71360;SDS011;59166;48.908;1.870;2023-08-12T12:58:19;5.77;;;1.50;;
71360;SDS011;59166;48.908;1.870;2023-08-12T13:03:19;6.27;;;1.40;;
71360;SDS011;59166;48.908;1.870;2023-08-12T13:08:20;8.07;;;1.70;;
71360;SDS011;59166;48.908;1.870;2023-08-12T13:13:22;5.23;;;1.50;;
71360;SDS011;59166;48.908;1.870;2023-08-12T13:18:23;5.85;;;1.50;;
71360;SDS011;59166;48.908;1.870;2023-08-12T13:23:24;5.33;;;1.50;;
71360;SDS011;59166;48.908;1.870;2023-08-12T13:28:26;5.57;;;1.60;;
71360;SDS011;59166;48.908;1.870;2023-08-12T13:33:26;5.43;;;1.55;;
71360;SDS011;59166;48.908;1.870;2023-08-12T13:38:27;5.97;;;1.70;;
71360;SDS011;59166;48.908;1.870;2023-08-12T13:43:29;5.90;;;1.40;;
71360;SDS011;59166;48.908;1.870;2023-08-12T13:48:30;6.00;;;1.50;;
71360;SDS011;59166;48.908;1.870;2023-08-12T13:53:31;7.45;;;1.80;;
71360;SDS011;59166;48.908;1.870;2023-08-12T13:58:33;5.90;;;1.80;;
71360;SDS011;59166;48.908;1.870;2023-08-12T14:03:33;6.90;;;1.77;;
71360;SDS011;59166;48.908;1.870;2023-08-12T14:08:34;8.97;;;1.80;;
71360;SDS011;59166;48.908;1.870;2023-08-12T14:13:36;8.23;;;1.60;;
71360;SDS011;59166;48.908;1.870;2023-08-12T14:18:37;5.72;;;1.60;;
71360;SDS011;59166;48.908;1.870;2023-08-12T14:23:37;5.90;;;1.60;;
71360;SDS011;59166;48.908;1.870;2023-08-12T14:28:39;7.20;;;1.70;;
71360;SDS011;59166;48.908;1.870;2023-08-12T14:33:40;5.80;;;1.40;;
71360;SDS011;59166;48.908;1.870;2023-08-12T14:38:40;5.60;;;1.70;;
71360;SDS011;59166;48.908;1.870;2023-08-12T14:43:42;7.03;;;1.60;;
71360;SDS011;59166;48.908;1.870;2023-08-12T14:48:43;7.13;;;1.60;;
71360;SDS011;59166;48.908;1.870;2023-08-12T14:53:44;5.23;;;1.40;;
71360;SDS011;59166;48.908;1.870;2023-08-12T14:58:46;6.47;;;1.50;;
71360;SDS011;59166;48.908;1.870;2023-08-12T15:03:46;5.25;;;1.60;;
71360;SDS011;59166;48.908;1.870;2023-08-12T15:08:47;6.17;;;1.60;;
71360;SDS011;59166;48.908;1.870;2023-08-12T15:13:49;7.83;;;1.60;;
71360;SDS011;59166;48.908;1.870;2023-08-12T15:18:49;7.40;;;1.70;;
71360;SDS011;59166;48.908;1.870;2023-08-12T15:23:51;5.60;;;1.60;;
71360;SDS011;59166;48.908;1.870;2023-08-12T15:28:53;6.72;;;1.65;;
71360;SDS011;59166;48.908;1.870;2023-08-12T15:33:53;5.75;;;1.50;;
71360;SDS011;59166;48.908;1.870;2023-08-12T15:38:54;7.37;;;1.40;;
71360;SDS011;59166;48.908;1.870;2023-08-12T15:43:56;5.70;;;1.50;;
71360;SDS011;59166;48.908;1.870;2023-08-12T15:48:57;6.18;;;1.50;;
71360;SDS011;59166;48.908;1.870;2023-08-12T15:53:57;7.63;;;1.60;;
71360;SDS011;59166;48.908;1.870;2023-08-12T15:58:59;6.77;;;1.50;;
71360;SDS011;59166;48.908;1.870;2023-08-12T16:04:00;8.88;;;1.75;;
71360;SDS011;59166;48.908;1.870;2023-08-12T16:09:01;6.18;;;1.70;;
71360;SDS011;59166;48.908;1.870;2023-08-12T16:14:03;7.13;;;1.60;;
71360;SDS011;59166;48.908;1.870;2023-08-12T16:19:04;6.10;;;1.50;;
71360;SDS011;59166;48.908;1.870;2023-08-12T16:24:04;7.50;;;1.80;;
71360;SDS011;59166;48.908;1.870;2023-08-12T16:29:07;9.20;;;1.67;;
71360;SDS011;59166;48.908;1.870;2023-08-12T16:34:07;8.63;;;1.70;;
71360;SDS011;59166;48.908;1.870;2023-08-12T16:39:08;8.00;;;1.80;;
71360;SDS011;59166;48.908;1.870;2023-08-12T16:44:10;7.33;;;1.60;;
71360;SDS011;59166;48.908;1.870;2023-08-12T16:49:11;6.22;;;1.48;;
71360;SDS011;59166;48.908;1.870;2023-08-12T16:54:11;7.63;;;1.50;;
71360;SDS011;59166;48.908;1.870;2023-08-12T16:59:13;8.90;;;2.10;;
71360;SDS011;59166;48.908;1.870;2023-08-12T17:04:14;7.55;;;1.75;;
71360;SDS011;59166;48.908;1.870;2023-08-12T17:09:14;8.13;;;1.73;;
71360;SDS011;59166;48.908;1.870;2023-08-12T17:14:16;6.47;;;1.70;;
71360;SDS011;59166;48.908;1.870;2023-08-12T17:19:17;8.53;;;1.90;;
71360;SDS011;59166;48.908;1.870;2023-08-12T17:24:18;7.45;;;1.60;;
71360;SDS011;59166;48.908;1.870;2023-08-12T17:29:20;8.77;;;1.57;;
71360;SDS011;59166;48.908;1.870;2023-08-12T17:34:20;6.97;;;1.63;;
71360;SDS011;59166;48.908;1.870;2023-08-12T17:39:21;9.47;;;1.83;;
71360;SDS011;59166;48.908;1.870;2023-08-12T17:44:23;7.63;;;1.73;;
71360;SDS011;59166;48.908;1.870;2023-08-12T17:49:24;7.27;;;1.80;;
71360;SDS011;59166;48.908;1.870;2023-08-12T17:54:24;6.37;;;1.70;;
71360;SDS011;59166;48.908;1.870;2023-08-12T17:59:26;8.10;;;1.83;;
71360;SDS011;59166;48.908;1.870;2023-08-12T18:04:27;7.50;;;1.77;;
71360;SDS011;59166;48.908;1.870;2023-08-12T18:09:27;9.53;;;1.67;;
71360;SDS011;59166;48.908;1.870;2023-08-12T18:14:29;7.93;;;1.60;;
71360;SDS011;59166;48.908;1.870;2023-08-12T18:19:30;7.18;;;1.58;;
71360;SDS011;59166;48.908;1.870;2023-08-12T18:24:31;6.70;;;1.63;;
71360;SDS011;59166;48.908;1.870;2023-08-12T18:29:33;6.37;;;1.67;;
71360;SDS011;59166;48.908;1.870;2023-08-12T18:34:33;8.88;;;1.80;;
71360;SDS011;59166;48.908;1.870;2023-08-12T18:39:34;7.30;;;1.67;;
71360;SDS011;59166;48.908;1.870;2023-08-12T18:44:36;8.55;;;1.80;;
71360;SDS011;59166;48.908;1.870;2023-08-12T18:49:37;6.53;;;1.70;;
71360;SDS011;59166;48.908;1.870;2023-08-12T18:54:37;9.93;;;1.92;;
71360;SDS011;59166;48.908;1.870;2023-08-12T18:59:39;8.07;;;2.20;;
71360;SDS011;59166;48.908;1.870;2023-08-12T19:04:40;8.13;;;1.90;;
71360;SDS011;59166;48.908;1.870;2023-08-12T19:09:40;10.17;;;3.00;;
71360;SDS011;59166;48.908;1.870;2023-08-12T19:14:42;7.47;;;2.00;;
71360;SDS011;59166;48.908;1.870;2023-08-12T19:19:43;10.30;;;3.17;;
71360;SDS011;59166;48.908;1.870;2023-08-12T19:24:44;11.67;;;2.60;;
71360;SDS011;59166;48.908;1.870;2023-08-12T19:29:46;9.07;;;2.77;;
71360;SDS011;59166;48.908;1.870;2023-08-12T19:34:47;8.65;;;2.83;;
71360;SDS011;59166;48.908;1.870;2023-08-12T19:39:47;9.27;;;3.40;;
71360;SDS011;59166;48.908;1.870;2023-08-12T19:44:49;11.43;;;2.97;;
71360;SDS011;59166;48.908;1.870;2023-08-12T19:49:50;8.83;;;2.17;;
71360;SDS011;59166;48.908;1.870;2023-08-12T19:54:50;7.43;;;2.10;;
71360;SDS011;59166;48.908;1.870;2023-08-12T19:59:52;7.43;;;2.30;;
71360;SDS011;59166;48.908;1.870;2023-08-12T20:04:53;10.25;;;2.60;;
71360;SDS011;59166;48.908;1.870;2023-08-12T20:09:53;8.13;;;2.40;;
71360;SDS011;59166;48.908;1.870;2023-08-12T20:14:55;10.07;;;5.17;;
71360;SDS011;59166;48.908;1.870;2023-08-12T20:19:56;8.63;;;2.25;;
71360;SDS011;59166;48.908;1.870;2023-08-12T20:24:57;8.75;;;3.40;;
71360;SDS011;59166;48.908;1.870;2023-08-12T20:29:59;6.87;;;2.20;;
71360;SDS011;59166;48.908;1.870;2023-08-12T20:35:00;7.47;;;2.83;;
71360;SDS011;59166;48.908;1.870;2023-08-12T20:40:00;9.50;;;2.13;;
71360;SDS011;59166;48.908;1.870;2023-08-12T20:45:04;8.00;;;2.35;;
71360;SDS011;59166;48.908;1.870;2023-08-12T20:50:05;9.87;;;2.57;;
71360;SDS011;59166;48.908;1.870;2023-08-12T20:55:07;10.35;;;2.42;;
71360;SDS011;59166;48.908;1.870;2023-08-12T21:00:10;10.93;;;4.93;;
71360;SDS011;59166;48.908;1.870;2023-08-12T21:05:11;12.07;;;5.97;;
71360;SDS011;59166;48.908;1.870;2023-08-12T21:10:11;11.85;;;2.50;;
71360;SDS011;59166;48.908;1.870;2023-08-12T21:15:13;8.27;;;2.40;;
71360;SDS011;59166;48.908;1.870;2023-08-12T21:20:14;8.95;;;2.30;;
71360;SDS011;59166;48.908;1.870;2023-08-12T21:25:15;9.40;;;2.30;;
71360;SDS011;59166;48.908;1.870;2023-08-12T21:30:17;9.85;;;2.40;;
71360;SDS011;59166;48.908;1.870;2023-08-12T21:35:18;8.67;;;2.20;;
71360;SDS011;59166;48.908;1.870;2023-08-12T21:40:18;7.70;;;1.93;;
71360;SDS011;59166;48.908;1.870;2023-08-12T21:45:20;8.63;;;2.20;;
71360;SDS011;59166;48.908;1.870;2023-08-12T21:50:21;10.18;;;2.30;;
71360;SDS011;59166;48.908;1.870;2023-08-12T21:55:21;8.90;;;2.27;;
71360;SDS011;59166;48.908;1.870;2023-08-12T22:00:24;10.00;;;2.03;;
71360;SDS011;59166;48.908;1.870;2023-08-12T22:05:24;9.32;;;2.28;;
71360;SDS011;59166;48.908;1.870;2023-08-12T22:10:25;11.43;;;2.10;;
71360;SDS011;59166;48.908;1.870;2023-08-12T22:15:27;7.68;;;2.15;;
71360;SDS011;59166;48.908;1.870;2023-08-12T22:20:27;9.53;;;2.30;;
71360;SDS011;59166;48.908;1.870;2023-08-12T22:25:28;8.93;;;2.33;;
71360;SDS011;59166;48.908;1.870;2023-08-12T22:30:30;8.00;;;2.20;;
71360;SDS011;59166;48.908;1.870;2023-08-12T22:35:31;9.35;;;2.28;;
71360;SDS011;59166;48.908;1.870;2023-08-12T22:40:31;7.67;;;2.20;;
71360;SDS011;59166;48.908;1.870;2023-08-12T22:45:35;9.47;;;2.33;;
71360;SDS011;59166;48.908;1.870;2023-08-12T22:50:40;8.15;;;2.28;;
71360;SDS011;59166;48.908;1.870;2023-08-12T22:55:40;10.73;;;2.40;;
71360;SDS011;59166;48.908;1.870;2023-08-12T23:00:42;9.30;;;2.40;;
71360;SDS011;59166;48.908;1.870;2023-08-12T23:05:43;8.33;;;2.20;;
71360;SDS011;59166;48.908;1.870;2023-08-12T23:10:43;11.15;;;2.30;;
71360;SDS011;59166;48.908;1.870;2023-08-12T23:15:45;9.03;;;2.23;;
71360;SDS011;59166;48.908;1.870;2023-08-12T23:20:46;11.70;;;2.50;;
71360;SDS011;59166;48.908;1.870;2023-08-12T23:25:47;8.80;;;2.57;;
71360;SDS011;59166;48.908;1.870;2023-08-12T23:30:49;10.87;;;2.50;;
71360;SDS011;59166;48.908;1.870;2023-08-12T23:35:49;9.90;;;2.25;;
71360;SDS011;59166;48.908;1.870;2023-08-12T23:40:50;8.13;;;2.40;;
71360;SDS011;59166;48.908;1.870;2023-08-12T23:45:52;8.47;;;2.23;;
71360;SDS011;59166;48.908;1.870;2023-08-12T23:50:57;11.93;;;2.22;;
71360;SDS011;59166;48.908;1.870;2023-08-12T23:55:58;11.23;;;2.50;;
